createdAt,value
2022-08-29T00:00:50.680Z,10.20
2022-08-29T00:03:19.224Z,10.17
2022-08-29T00:05:50.056Z,11.10
2022-08-29T00:08:19.147Z,9.93
2022-08-29T00:10:47.974Z,10.40
2022-08-29T00:13:17.315Z,10.43
2022-08-29T00:15:45.947Z,9.77
2022-08-29T00:18:16.342Z,10.07
2022-08-29T00:20:45.743Z,9.60
2022-08-29T00:23:14.314Z,11.10
2022-08-29T00:25:42.801Z,11.37
2022-08-29T00:28:11.301Z,12.23
2022-08-29T00:30:40.145Z,11.80
2022-08-29T00:33:09.462Z,13.70
2022-08-29T00:35:45.654Z,13.03
2022-08-29T00:38:18.213Z,12.87
2022-08-29T00:40:51.858Z,13.23
2022-08-29T00:43:24.721Z,11.83
2022-08-29T00:46:01.455Z,12.47
2022-08-29T00:48:30.202Z,12.27
2022-08-29T00:51:04.981Z,11.40
2022-08-29T00:53:36.954Z,11.80
2022-08-29T00:56:07.553Z,12.53
2022-08-29T00:58:39.814Z,12.83
2022-08-29T01:01:08.545Z,14.30
2022-08-29T01:03:42.788Z,13.03
2022-08-29T01:06:14.698Z,11.50
2022-08-29T01:08:44.213Z,11.73
2022-08-29T01:11:30.994Z,13.30
2022-08-29T01:14:00.665Z,12.50
2022-08-29T01:16:29.747Z,17.73
2022-08-29T01:19:00.751Z,15.23
2022-08-29T01:21:36.343Z,18.50
2022-08-29T01:24:10.038Z,15.53
2022-08-29T01:26:40.949Z,17.80
2022-08-29T01:29:09.813Z,15.43
2022-08-29T01:31:57.200Z,13.47
2022-08-29T01:34:27.663Z,12.63
2022-08-29T01:36:58.627Z,12.37
2022-08-29T01:39:29.966Z,11.57
2022-08-29T01:42:01.674Z,13.37
2022-08-29T01:44:30.419Z,19.90
2022-08-29T01:47:03.069Z,19.10
2022-08-29T01:49:34.584Z,21.67
2022-08-29T01:52:04.642Z,18.10
2022-08-29T01:54:34.407Z,16.90
2022-08-29T01:57:04.720Z,16.13
2022-08-29T01:59:33.625Z,13.60
2022-08-29T02:02:05.509Z,12.20
2022-08-29T02:04:34.535Z,13.30
2022-08-29T02:07:03.920Z,12.47
2022-08-29T02:09:33.145Z,12.80
2022-08-29T02:12:07.231Z,13.87
2022-08-29T02:14:36.789Z,14.73
2022-08-29T02:17:07.612Z,16.83
2022-08-29T02:19:37.025Z,13.80
2022-08-29T02:22:06.277Z,13.00
2022-08-29T02:24:35.058Z,14.53
2022-08-29T02:27:05.505Z,15.20
2022-08-29T02:29:37.723Z,13.57
2022-08-29T02:32:07.318Z,13.50
2022-08-29T02:34:36.543Z,13.27
2022-08-29T02:37:06.018Z,12.10
2022-08-29T02:39:34.620Z,13.53
2022-08-29T02:42:04.572Z,12.00
2022-08-29T02:44:32.899Z,11.60
2022-08-29T02:47:01.196Z,13.63
2022-08-29T02:49:30.308Z,12.37
2022-08-29T02:51:59.091Z,13.23
2022-08-29T02:54:27.344Z,13.80
2022-08-29T02:56:55.681Z,12.73
2022-08-29T02:59:25.189Z,12.10
2022-08-29T03:01:54.411Z,12.00
2022-08-29T03:04:22.705Z,11.97
2022-08-29T03:06:51.009Z,12.60
2022-08-29T03:09:19.335Z,14.00
2022-08-29T03:11:47.522Z,13.23
2022-08-29T03:14:16.007Z,14.87
2022-08-29T03:16:45.635Z,14.87
2022-08-29T03:19:13.922Z,16.20
2022-08-29T03:21:42.480Z,16.47
2022-08-29T03:24:10.663Z,17.10
2022-08-29T03:26:38.876Z,14.83
2022-08-29T03:29:07.044Z,13.40
2022-08-29T03:31:35.755Z,14.80
2022-08-29T03:34:05.982Z,13.20
2022-08-29T03:36:34.306Z,12.70
2022-08-29T03:39:02.559Z,12.80
2022-08-29T03:41:31.251Z,13.97
2022-08-29T03:44:00.284Z,13.93
2022-08-29T03:46:29.146Z,12.53
2022-08-29T03:48:57.425Z,13.90
2022-08-29T03:51:29.259Z,13.30
2022-08-29T03:53:57.861Z,14.30
2022-08-29T03:56:26.346Z,15.33
2022-08-29T03:58:54.905Z,12.90
2022-08-29T04:01:24.920Z,15.90
2022-08-29T04:03:53.948Z,14.07
2022-08-29T04:06:23.620Z,15.30
2022-08-29T04:08:53.672Z,13.57
2022-08-29T04:11:23.996Z,22.17
2022-08-29T04:13:53.049Z,17.60
2022-08-29T04:16:23.484Z,17.40
2022-08-29T04:18:51.819Z,17.37
2022-08-29T04:21:20.275Z,16.37
2022-08-29T04:23:48.730Z,15.20
2022-08-29T04:26:36.402Z,14.70
2022-08-29T04:29:06.129Z,14.87
2022-08-29T04:31:34.502Z,13.50
2022-08-29T04:34:02.862Z,12.47
2022-08-29T04:36:31.204Z,13.57
2022-08-29T04:38:59.435Z,13.53
2022-08-29T04:41:29.027Z,15.63
2022-08-29T04:43:57.227Z,15.10
2022-08-29T04:46:25.469Z,15.50
2022-08-29T04:48:54.203Z,14.10
2022-08-29T04:51:22.548Z,14.77
2022-08-29T04:53:52.057Z,15.30
2022-08-29T04:56:21.653Z,13.90
2022-08-29T04:58:52.282Z,15.00
2022-08-29T05:01:22.169Z,13.90
2022-08-29T05:03:52.400Z,14.27
2022-08-29T05:06:25.109Z,12.80
2022-08-29T05:08:59.640Z,13.70
2022-08-29T05:11:30.709Z,13.33
2022-08-29T05:14:00.861Z,14.60
2022-08-29T05:16:30.131Z,15.90
2022-08-29T05:19:01.196Z,14.60
2022-08-29T05:21:35.439Z,14.93
2022-08-29T05:24:05.610Z,14.30
2022-08-29T05:26:35.978Z,13.83
2022-08-29T05:29:08.423Z,14.53
2022-08-29T05:31:37.686Z,14.10
2022-08-29T05:34:11.271Z,14.43
2022-08-29T05:36:54.673Z,14.03
2022-08-29T05:39:22.929Z,14.50
2022-08-29T05:41:51.453Z,13.53
2022-08-29T05:44:21.145Z,13.57
2022-08-29T05:46:49.883Z,13.20
2022-08-29T05:49:18.265Z,12.13
2022-08-29T05:51:46.478Z,13.10
2022-08-29T05:54:14.945Z,13.10
2022-08-29T05:56:43.320Z,13.40
2022-08-29T05:59:13.723Z,12.77
2022-08-29T06:01:44.047Z,14.83
2022-08-29T06:04:12.880Z,13.60
2022-08-29T06:06:42.180Z,13.07
2022-08-29T06:09:11.106Z,12.17
2022-08-29T06:11:39.464Z,13.93
2022-08-29T06:14:07.886Z,12.00
2022-08-29T06:16:39.659Z,12.30
2022-08-29T06:19:09.229Z,14.60
2022-08-29T06:21:37.454Z,13.10
2022-08-29T06:24:05.970Z,13.33
2022-08-29T06:26:34.854Z,13.60
2022-08-29T06:29:05.823Z,12.77
2022-08-29T06:31:34.172Z,13.80
2022-08-29T06:34:04.855Z,14.00
2022-08-29T06:36:37.083Z,12.90
2022-08-29T06:39:08.108Z,12.70
2022-08-29T06:41:36.790Z,13.43
2022-08-29T06:44:05.397Z,12.53
2022-08-29T06:46:35.646Z,13.67
2022-08-29T06:49:05.468Z,12.17
2022-08-29T06:51:37.075Z,12.40
2022-08-29T06:54:07.308Z,12.87
2022-08-29T06:56:36.601Z,14.03
2022-08-29T06:59:05.816Z,14.13
2022-08-29T07:01:34.606Z,12.77
2022-08-29T07:04:04.908Z,11.40
2022-08-29T07:06:34.539Z,13.73
2022-08-29T07:09:02.732Z,13.07
2022-08-29T07:11:32.312Z,12.50
2022-08-29T07:14:02.622Z,14.07
2022-08-29T07:16:32.167Z,12.90
2022-08-29T07:19:00.374Z,11.80
2022-08-29T07:21:28.631Z,13.67
2022-08-29T07:23:58.963Z,13.90
2022-08-29T07:26:29.911Z,13.37
2022-08-29T07:29:00.278Z,13.43
2022-08-29T07:31:32.322Z,13.93
2022-08-29T07:34:02.685Z,15.10
2022-08-29T07:36:31.636Z,14.00
2022-08-29T07:39:01.940Z,13.50
2022-08-29T07:41:30.131Z,14.50
2022-08-29T07:43:58.923Z,13.40
2022-08-29T07:46:27.376Z,12.60
2022-08-29T07:48:55.846Z,14.50
2022-08-29T07:51:24.891Z,13.20
2022-08-29T07:53:56.783Z,13.70
2022-08-29T07:56:32.435Z,14.40
2022-08-29T07:59:04.320Z,12.20
2022-08-29T08:01:32.841Z,14.83
2022-08-29T08:04:05.855Z,13.63
2022-08-29T08:06:36.797Z,14.50
2022-08-29T08:09:06.251Z,16.93
2022-08-29T08:11:37.341Z,14.47
2022-08-29T08:14:05.953Z,14.97
2022-08-29T08:16:34.745Z,12.70
2022-08-29T08:19:03.053Z,13.13
2022-08-29T08:21:31.504Z,13.27
2022-08-29T08:23:59.701Z,14.10
2022-08-29T08:26:28.027Z,15.00
2022-08-29T08:28:57.676Z,12.90
2022-08-29T08:31:26.007Z,15.43
2022-08-29T08:33:54.514Z,13.80
2022-08-29T08:36:24.922Z,14.57
2022-08-29T08:38:54.395Z,13.87
2022-08-29T08:41:36.314Z,15.33
2022-08-29T08:44:08.411Z,14.03
2022-08-29T08:46:40.069Z,12.80
2022-08-29T08:49:11.615Z,13.13
2022-08-29T08:51:44.879Z,13.63
2022-08-29T08:54:19.443Z,13.40
2022-08-29T08:56:49.430Z,11.83
2022-08-29T08:59:21.188Z,12.23
2022-08-29T09:02:06.606Z,11.53
2022-08-29T09:04:48.461Z,12.63
2022-08-29T09:07:36.930Z,12.87
2022-08-29T09:10:16.578Z,11.20
2022-08-29T09:12:51.759Z,12.50
2022-08-29T09:15:24.007Z,11.33
2022-08-29T09:17:56.006Z,13.10
2022-08-29T09:20:32.837Z,11.10
2022-08-29T09:23:02.440Z,13.27
2022-08-29T09:25:31.204Z,14.33
2022-08-29T09:28:00.160Z,13.03
2022-08-29T09:30:31.388Z,13.40
2022-08-29T09:33:02.774Z,13.30
2022-08-29T09:35:37.114Z,12.20
2022-08-29T09:38:07.598Z,12.27
2022-08-29T09:40:46.519Z,11.40
2022-08-29T09:43:20.470Z,13.23
2022-08-29T09:46:10.273Z,13.20
2022-08-29T09:48:40.087Z,12.40
2022-08-29T09:51:14.264Z,12.33
2022-08-29T09:53:43.378Z,14.30
2022-08-29T09:56:17.092Z,13.67
2022-08-29T09:58:45.287Z,12.57
2022-08-29T10:01:19.810Z,12.30
2022-08-29T10:03:59.348Z,11.83
2022-08-29T10:06:31.547Z,10.70
2022-08-29T10:09:09.874Z,11.53
2022-08-29T10:11:42.118Z,11.13
2022-08-29T10:14:14.629Z,10.30
2022-08-29T10:16:52.639Z,11.37
2022-08-29T10:19:33.140Z,9.87
2022-08-29T10:22:07.660Z,11.50
2022-08-29T10:24:55.355Z,10.93
2022-08-29T10:27:32.729Z,10.83
2022-08-29T10:30:08.362Z,9.77
2022-08-29T10:32:52.844Z,9.50
2022-08-29T10:35:30.182Z,10.00
2022-08-29T10:38:01.134Z,9.43
2022-08-29T10:40:34.715Z,10.17
2022-08-29T10:43:16.940Z,10.10
2022-08-29T10:45:55.435Z,10.60
2022-08-29T10:48:30.329Z,10.90
2022-08-29T10:51:10.800Z,10.70
2022-08-29T10:53:42.220Z,12.67
2022-08-29T10:56:17.314Z,11.70
2022-08-29T10:58:52.473Z,10.73
2022-08-29T11:01:24.471Z,11.13
2022-08-29T11:04:04.679Z,11.43
2022-08-29T11:09:09.496Z,10.40
2022-08-29T11:11:39.580Z,11.00
2022-08-29T11:14:13.492Z,12.20
2022-08-29T11:16:44.478Z,10.83
2022-08-29T11:19:22.280Z,11.60
2022-08-29T11:21:56.748Z,11.03
2022-08-29T11:24:30.617Z,10.43
2022-08-29T11:27:07.318Z,10.93
2022-08-29T11:29:40.653Z,10.70
2022-08-29T11:32:13.882Z,10.10
2022-08-29T11:34:49.140Z,11.60
2022-08-29T11:37:30.097Z,10.53
2022-08-29T11:40:00.877Z,10.17
2022-08-29T11:43:01.793Z,10.83
2022-08-29T11:45:29.620Z,10.80
2022-08-29T11:48:20.848Z,10.37
2022-08-29T11:50:50.407Z,10.63
2022-08-29T11:53:33.956Z,9.50
2022-08-29T11:56:27.878Z,9.47
2022-08-29T11:58:57.279Z,11.83
2022-08-29T12:01:58.689Z,10.50
2022-08-29T12:04:55.919Z,10.80
2022-08-29T12:07:35.821Z,10.23
2022-08-29T12:10:06.581Z,9.30
2022-08-29T12:12:45.388Z,10.57
2022-08-29T12:15:43.522Z,10.67
2022-08-29T12:18:52.476Z,10.30
2022-08-29T12:21:47.328Z,10.37
2022-08-29T12:24:55.210Z,10.03
2022-08-29T12:28:02.055Z,10.80
2022-08-29T12:30:34.759Z,10.70
2022-08-29T12:33:14.495Z,11.80
2022-08-29T12:36:03.595Z,12.47
2022-08-29T12:38:42.109Z,13.40
2022-08-29T12:41:28.856Z,12.53
2022-08-29T12:43:59.874Z,10.80
2022-08-29T12:46:35.886Z,13.03
2022-08-29T12:49:08.225Z,12.07
2022-08-29T12:51:38.825Z,13.00
2022-08-29T12:54:08.141Z,11.33
2022-08-29T12:56:39.593Z,11.83
2022-08-29T12:59:07.949Z,12.40
2022-08-29T13:01:38.960Z,11.57
2022-08-29T13:04:15.117Z,10.90
2022-08-29T13:06:53.619Z,11.20
2022-08-29T13:09:29.928Z,10.47
2022-08-29T13:12:16.134Z,10.20
2022-08-29T13:14:49.093Z,10.70
2022-08-29T13:17:18.291Z,9.50
2022-08-29T13:20:19.562Z,10.60
2022-08-29T13:22:48.329Z,11.27
2022-08-29T13:25:19.419Z,9.30
2022-08-29T13:27:49.659Z,9.67
2022-08-29T13:30:23.446Z,9.60
2022-08-29T13:32:52.508Z,10.07
2022-08-29T13:35:31.425Z,10.23
2022-08-29T13:38:19.846Z,10.60
2022-08-29T13:40:49.389Z,9.00
2022-08-29T13:43:35.834Z,9.23
2022-08-29T13:46:15.573Z,9.77
2022-08-29T13:48:44.465Z,9.27
2022-08-29T13:51:13.416Z,8.67
2022-08-29T13:53:44.708Z,7.37
2022-08-29T13:56:22.599Z,8.67
2022-08-29T13:58:52.427Z,9.03
2022-08-29T14:01:30.881Z,7.77
2022-08-29T14:04:36.826Z,9.43
2022-08-29T14:07:07.038Z,9.53
2022-08-29T14:09:59.877Z,8.07
2022-08-29T14:12:50.810Z,8.20
2022-08-29T14:15:41.444Z,7.63
2022-08-29T14:18:37.906Z,7.23
2022-08-29T14:21:06.837Z,7.60
2022-08-29T14:23:35.898Z,8.03
2022-08-29T14:26:04.079Z,8.90
2022-08-29T14:28:35.710Z,7.90
2022-08-29T14:31:07.966Z,8.73
2022-08-29T14:33:36.169Z,9.57
2022-08-29T14:36:04.762Z,8.60
2022-08-29T14:38:33.404Z,9.70
2022-08-29T14:41:01.703Z,10.47
2022-08-29T14:43:30.745Z,10.77
2022-08-29T14:45:59.026Z,9.43
2022-08-29T14:48:30.132Z,9.10
2022-08-29T14:50:58.372Z,8.80
2022-08-29T14:53:26.973Z,7.70
2022-08-29T14:56:07.087Z,7.53
2022-08-29T14:58:36.961Z,7.87
2022-08-29T15:01:05.389Z,9.60
2022-08-29T15:03:35.040Z,7.77
2022-08-29T15:06:03.991Z,8.73
2022-08-29T15:08:36.424Z,7.67
2022-08-29T15:11:05.723Z,8.60
2022-08-29T15:13:35.023Z,8.47
2022-08-29T15:16:03.855Z,7.37
2022-08-29T15:19:22.390Z,7.60
2022-08-29T15:21:22.325Z,7.17
2022-08-29T15:23:50.510Z,7.97
2022-08-29T15:26:18.665Z,7.03
2022-08-29T15:28:47.459Z,8.30
2022-08-29T15:31:16.267Z,7.73
2022-08-29T15:33:44.505Z,6.83
2022-08-29T15:36:12.722Z,7.67
2022-08-29T15:38:43.128Z,10.07
2022-08-29T15:41:11.489Z,9.70
2022-08-29T15:43:40.063Z,8.50
2022-08-29T15:46:08.819Z,11.90
2022-08-29T15:48:37.923Z,10.63
2022-08-29T15:51:08.567Z,16.67
2022-08-29T15:53:38.125Z,17.67
2022-08-29T15:56:08.830Z,18.47
2022-08-29T15:58:37.810Z,13.00
2022-08-29T16:01:06.297Z,16.43
2022-08-29T16:03:35.361Z,15.17
2022-08-29T16:06:04.736Z,14.53
2022-08-29T16:08:32.914Z,20.00
2022-08-29T16:11:01.620Z,19.77
2022-08-29T16:13:31.261Z,18.43
2022-08-29T16:15:59.700Z,14.20
2022-08-29T16:18:28.011Z,12.10
2022-08-29T16:20:56.915Z,10.30
2022-08-29T16:23:25.252Z,9.10
2022-08-29T16:25:53.612Z,9.83
2022-08-29T16:28:21.963Z,7.60
2022-08-29T16:30:51.630Z,7.80
2022-08-29T16:33:19.785Z,8.90
2022-08-29T16:35:47.917Z,9.17
2022-08-29T16:38:16.295Z,8.60
2022-08-29T16:40:44.756Z,9.63
2022-08-29T16:43:12.911Z,9.00
2022-08-29T16:45:41.129Z,10.60
2022-08-29T16:48:15.591Z,20.83
2022-08-29T16:50:45.307Z,21.00
2022-08-29T16:53:14.419Z,26.23
2022-08-29T16:55:42.730Z,22.00
2022-08-29T16:58:28.523Z,12.90
2022-08-29T17:00:56.631Z,16.90
2022-08-29T17:03:26.798Z,16.70
2022-08-29T17:05:55.971Z,19.87
2022-08-29T17:08:23.536Z,19.90
2022-08-29T17:10:50.779Z,16.50
2022-08-29T17:13:17.762Z,12.83
2022-08-29T17:15:44.707Z,13.00
2022-08-29T17:18:12.995Z,12.80
2022-08-29T17:20:43.982Z,11.70
2022-08-29T17:23:15.763Z,12.43
2022-08-29T17:25:43.872Z,12.90
2022-08-29T17:28:27.728Z,16.70
2022-08-29T17:30:57.524Z,18.47
2022-08-29T17:33:26.569Z,20.87
2022-08-29T17:35:56.108Z,18.17
2022-08-29T17:38:24.415Z,11.73
2022-08-29T17:40:57.263Z,11.73
2022-08-29T17:43:26.492Z,15.40
2022-08-29T17:45:54.919Z,17.13
2022-08-29T17:48:23.259Z,22.27
2022-08-29T17:50:52.592Z,21.07
2022-08-29T17:53:23.038Z,22.20
2022-08-29T17:55:51.192Z,19.10
2022-08-29T17:58:20.399Z,14.20
2022-08-29T18:00:49.633Z,20.73
2022-08-29T18:03:19.726Z,22.07
2022-08-29T18:05:49.449Z,18.30
2022-08-29T18:08:18.941Z,15.90
2022-08-29T18:10:49.214Z,17.20
2022-08-29T18:13:21.424Z,14.47
2022-08-29T18:15:53.863Z,14.20
2022-08-29T18:18:22.546Z,14.20
2022-08-29T18:20:50.874Z,11.10
2022-08-29T18:23:19.428Z,11.90
2022-08-29T18:25:49.035Z,10.33
2022-08-29T18:28:17.429Z,10.17
2022-08-29T18:30:45.915Z,12.90
2022-08-29T18:33:14.512Z,13.13
2022-08-29T18:35:42.732Z,16.10
2022-08-29T18:38:10.865Z,18.30
2022-08-29T18:40:40.087Z,16.73
2022-08-29T18:43:11.216Z,12.60
2022-08-29T18:45:40.080Z,10.97
2022-08-29T18:48:08.822Z,11.30
2022-08-29T18:50:37.227Z,15.40
2022-08-29T18:53:07.767Z,13.93
2022-08-29T18:55:35.932Z,15.40
2022-08-29T18:58:04.594Z,15.87
2022-08-29T19:00:34.369Z,13.47
2022-08-29T19:03:04.070Z,11.53
2022-08-29T19:05:35.276Z,10.20
2022-08-29T19:08:03.656Z,9.43
2022-08-29T19:10:32.946Z,9.27
2022-08-29T19:13:01.327Z,10.20
2022-08-29T19:15:30.843Z,14.53
2022-08-29T19:18:00.644Z,18.17
2022-08-29T19:20:47.028Z,20.20
2022-08-29T19:23:16.138Z,17.50
2022-08-29T19:25:45.618Z,18.70
2022-08-29T19:28:14.181Z,22.13
2022-08-29T19:30:43.196Z,18.50
2022-08-29T19:33:15.239Z,13.60
2022-08-29T19:35:43.606Z,11.57
2022-08-29T19:38:11.751Z,10.30
2022-08-29T19:40:40.118Z,10.20
2022-08-29T19:43:13.861Z,9.80
2022-08-29T19:45:44.262Z,9.57
2022-08-29T19:48:15.434Z,9.80
2022-08-29T19:50:47.519Z,12.33
2022-08-29T19:53:24.596Z,17.77
2022-08-29T19:55:56.447Z,16.47
2022-08-29T19:58:31.492Z,15.90
2022-08-29T20:01:01.629Z,16.37
2022-08-29T20:03:32.948Z,17.33
2022-08-29T20:06:06.171Z,12.30
2022-08-29T20:08:37.741Z,11.80
2022-08-29T20:11:06.531Z,10.10
2022-08-29T20:13:36.341Z,9.90
2022-08-29T20:16:11.978Z,11.87
2022-08-29T20:18:42.404Z,11.83
2022-08-29T20:21:12.889Z,9.10
2022-08-29T20:23:49.598Z,10.83
2022-08-29T20:26:19.283Z,12.00
2022-08-29T20:28:48.496Z,22.90
2022-08-29T20:31:16.813Z,15.83
2022-08-29T20:33:47.610Z,13.47
2022-08-29T20:36:33.995Z,11.10
2022-08-29T20:39:07.504Z,9.70
2022-08-29T20:41:35.707Z,9.37
2022-08-29T20:44:07.623Z,8.80
2022-08-29T20:46:39.614Z,9.83
2022-08-29T20:49:09.700Z,11.30
2022-08-29T20:51:39.411Z,10.73
2022-08-29T20:54:08.743Z,10.73
2022-08-29T20:56:36.846Z,9.73
2022-08-29T20:59:05.007Z,11.43
2022-08-29T21:01:34.678Z,11.57
2022-08-29T21:04:21.143Z,11.43
2022-08-29T21:06:55.232Z,10.27
2022-08-29T21:09:23.549Z,10.67
2022-08-29T21:11:51.881Z,10.23
2022-08-29T21:14:22.431Z,10.53
2022-08-29T21:16:51.205Z,11.50
2022-08-29T21:19:19.863Z,10.00
2022-08-29T21:21:48.547Z,10.80
2022-08-29T21:24:18.409Z,11.20
2022-08-29T21:26:46.509Z,10.80
2022-08-29T21:29:14.755Z,11.33
2022-08-29T21:31:42.955Z,11.23
2022-08-29T21:34:12.158Z,10.47
2022-08-29T21:36:40.682Z,10.83
2022-08-29T21:39:11.171Z,10.53
2022-08-29T21:41:42.703Z,9.43
2022-08-29T21:44:12.038Z,10.30
2022-08-29T21:46:43.077Z,9.70
2022-08-29T21:49:13.761Z,11.23
2022-08-29T21:51:42.036Z,10.67
2022-08-29T21:54:13.346Z,10.33
2022-08-29T21:56:43.847Z,10.13
2022-08-29T21:59:12.893Z,9.10
2022-08-29T22:01:45.516Z,10.87
2022-08-29T22:04:27.948Z,10.07
2022-08-29T22:06:57.871Z,11.27
2022-08-29T22:09:26.507Z,10.00
2022-08-29T22:11:56.194Z,9.50
2022-08-29T22:14:44.852Z,7.70
2022-08-29T22:17:12.052Z,10.50
2022-08-29T22:19:40.215Z,9.67
2022-08-29T22:22:09.091Z,9.30
2022-08-29T22:24:37.993Z,9.67
2022-08-29T22:27:07.921Z,9.73
2022-08-29T22:29:37.111Z,9.73
2022-08-29T22:32:05.901Z,11.83
2022-08-29T22:34:34.267Z,10.63
2022-08-29T22:37:02.475Z,10.13
2022-08-29T22:39:30.607Z,9.70
2022-08-29T22:41:58.819Z,9.40
2022-08-29T22:45:02.846Z,8.87
2022-08-29T22:47:17.637Z,9.53
2022-08-29T22:49:45.950Z,8.70
2022-08-29T22:52:14.131Z,10.30
2022-08-29T22:54:42.363Z,9.73
2022-08-29T22:57:12.803Z,9.47
2022-08-29T22:59:43.245Z,8.93
2022-08-29T23:02:12.551Z,9.33
2022-08-29T23:04:41.278Z,9.13
2022-08-29T23:07:11.801Z,8.87
2022-08-29T23:09:40.489Z,9.80
2022-08-29T23:12:09.215Z,10.60
2022-08-29T23:14:39.548Z,8.57
2022-08-29T23:17:10.204Z,8.27
2022-08-29T23:19:41.027Z,9.63
2022-08-29T23:22:10.301Z,9.60
2022-08-29T23:24:39.160Z,8.97
2022-08-29T23:27:09.511Z,8.70
2022-08-29T23:29:42.048Z,8.10
2022-08-29T23:32:11.766Z,9.07
2022-08-29T23:34:39.883Z,8.90
2022-08-29T23:37:07.990Z,7.93
2022-08-29T23:39:36.193Z,7.93
2022-08-29T23:42:04.414Z,7.13
2022-08-29T23:44:32.606Z,8.90
2022-08-29T23:47:00.804Z,9.20
2022-08-29T23:49:30.343Z,8.00
2022-08-29T23:51:59.218Z,8.23
2022-08-29T23:54:27.740Z,7.57
2022-08-29T23:56:55.852Z,7.93
2022-08-29T23:59:41.701Z,7.80
